sensor_id;sensor_type;location;lat;lon;timestamp;pressure;altitude;pressure_sealevel;temperature;humidity
23229;BME280;11783;50.350;6.576;2024-01-15T00:01:46;95006.50;;;-2.99;100.00
23229;BME280;11783;50.350;6.576;2024-01-15T00:04:12;94999.75;;;-2.93;100.00
23229;BME280;11783;50.350;6.576;2024-01-15T00:06:37;94992.56;;;-2.91;100.00
23229;BME280;11783;50.350;6.576;2024-01-15T00:09:03;94992.19;;;-2.88;100.00
23229;BME280;11783;50.350;6.576;2024-01-15T00:11:28;95002.19;;;-2.85;100.00
23229;BME280;11783;50.350;6.576;2024-01-15T00:13:53;95004.19;;;-2.87;100.00
23229;BME280;11783;50.350;6.576;2024-01-15T00:16:19;95006.94;;;-2.95;100.00
23229;BME280;11783;50.350;6.576;2024-01-15T00:18:44;95004.09;;;-3.00;100.00
23229;BME280;11783;50.350;6.576;2024-01-15T00:21:10;95000.97;;;-2.89;100.00
23229;BME280;11783;50.350;6.576;2024-01-15T00:23:35;95003.16;;;-2.93;100.00
23229;BME280;11783;50.350;6.576;2024-01-15T00:26:01;95000.28;;;-3.05;100.00
23229;BME280;11783;50.350;6.576;2024-01-15T00:28:27;94999.28;;;-3.03;100.00
23229;BME280;11783;50.350;6.576;2024-01-15T00:30:52;94993.94;;;-2.95;100.00
23229;BME280;11783;50.350;6.576;2024-01-15T00:33:18;94991.16;;;-2.94;100.00
23229;BME280;11783;50.350;6.576;2024-01-15T00:35:43;94988.59;;;-2.87;100.00
23229;BME280;11783;50.350;6.576;2024-01-15T00:38:08;94978.97;;;-2.93;100.00
23229;BME280;11783;50.350;6.576;2024-01-15T00:40:34;94962.78;;;-2.89;100.00
23229;BME280;11783;50.350;6.576;2024-01-15T00:42:59;94947.38;;;-2.90;100.00
23229;BME280;11783;50.350;6.576;2024-01-15T00:45:25;94943.63;;;-2.81;100.00
23229;BME280;11783;50.350;6.576;2024-01-15T00:47:50;94929.00;;;-2.89;100.00
23229;BME280;11783;50.350;6.576;2024-01-15T00:50:16;94942.03;;;-2.82;100.00
23229;BME280;11783;50.350;6.576;2024-01-15T00:52:42;94950.06;;;-2.77;100.00
23229;BME280;11783;50.350;6.576;2024-01-15T00:55:08;94955.19;;;-2.90;100.00
23229;BME280;11783;50.350;6.576;2024-01-15T00:57:33;94955.59;;;-2.87;100.00
23229;BME280;11783;50.350;6.576;2024-01-15T00:59:59;94960.81;;;-2.80;100.00
23229;BME280;11783;50.350;6.576;2024-01-15T01:02:24;94941.28;;;-2.76;100.00
23229;BME280;11783;50.350;6.576;2024-01-15T01:04:49;94936.06;;;-2.76;100.00
23229;BME280;11783;50.350;6.576;2024-01-15T01:07:15;94944.91;;;-2.70;100.00
23229;BME280;11783;50.350;6.576;2024-01-15T01:09:41;94939.50;;;-2.69;100.00
23229;BME280;11783;50.350;6.576;2024-01-15T01:12:06;94948.91;;;-2.68;100.00
23229;BME280;11783;50.350;6.576;2024-01-15T01:14:32;94950.50;;;-2.67;100.00
23229;BME280;11783;50.350;6.576;2024-01-15T01:16:57;94943.31;;;-2.65;100.00
23229;BME280;11783;50.350;6.576;2024-01-15T01:19:23;94941.28;;;-2.69;100.00
23229;BME280;11783;50.350;6.576;2024-01-15T01:21:50;94945.88;;;-2.71;100.00
23229;BME280;11783;50.350;6.576;2024-01-15T01:24:16;94940.66;;;-2.78;100.00
23229;BME280;11783;50.350;6.576;2024-01-15T01:26:42;94922.28;;;-2.70;100.00
23229;BME280;11783;50.350;6.576;2024-01-15T01:29:07;94930.72;;;-2.61;100.00
23229;BME280;11783;50.350;6.576;2024-01-15T01:31:33;94935.78;;;-2.53;100.00
23229;BME280;11783;50.350;6.576;2024-01-15T01:33:59;94935.59;;;-2.52;100.00
23229;BME280;11783;50.350;6.576;2024-01-15T01:36:24;94941.78;;;-2.53;100.00
23229;BME280;11783;50.350;6.576;2024-01-15T01:38:49;94929.97;;;-2.55;100.00
23229;BME280;11783;50.350;6.576;2024-01-15T01:41:21;94931.78;;;-2.49;100.00
23229;BME280;11783;50.350;6.576;2024-01-15T01:43:46;94946.56;;;-2.56;100.00
23229;BME280;11783;50.350;6.576;2024-01-15T01:46:12;94933.53;;;-2.63;100.00
23229;BME280;11783;50.350;6.576;2024-01-15T01:48:37;94926.16;;;-2.59;100.00
23229;BME280;11783;50.350;6.576;2024-01-15T01:51:04;94920.94;;;-2.59;100.00
23229;BME280;11783;50.350;6.576;2024-01-15T01:53:31;94921.50;;;-2.64;100.00
23229;BME280;11783;50.350;6.576;2024-01-15T01:55:57;94932.72;;;-2.63;100.00
23229;BME280;11783;50.350;6.576;2024-01-15T01:58:23;94925.53;;;-2.61;100.00
23229;BME280;11783;50.350;6.576;2024-01-15T02:00:48;94922.69;;;-2.66;100.00
23229;BME280;11783;50.350;6.576;2024-01-15T02:03:14;94925.31;;;-2.66;100.00
23229;BME280;11783;50.350;6.576;2024-01-15T02:05:42;94928.09;;;-2.68;100.00
23229;BME280;11783;50.350;6.576;2024-01-15T02:08:08;94920.16;;;-2.60;100.00
23229;BME280;11783;50.350;6.576;2024-01-15T02:10:33;94927.94;;;-2.60;100.00
23229;BME280;11783;50.350;6.576;2024-01-15T02:12:59;94925.31;;;-2.66;100.00
23229;BME280;11783;50.350;6.576;2024-01-15T02:15:24;94928.31;;;-2.63;100.00
23229;BME280;11783;50.350;6.576;2024-01-15T02:18:06;94924.56;;;-2.60;100.00
23229;BME280;11783;50.350;6.576;2024-01-15T02:20:35;94923.72;;;-2.61;100.00
23229;BME280;11783;50.350;6.576;2024-01-15T02:23:19;94921.91;;;-2.67;100.00
23229;BME280;11783;50.350;6.576;2024-01-15T02:25:46;94918.50;;;-2.67;100.00
23229;BME280;11783;50.350;6.576;2024-01-15T02:28:16;94918.50;;;-2.67;100.00
23229;BME280;11783;50.350;6.576;2024-01-15T02:30:43;94916.28;;;-2.70;100.00
23229;BME280;11783;50.350;6.576;2024-01-15T02:33:09;94909.47;;;-2.71;100.00
23229;BME280;11783;50.350;6.576;2024-01-15T02:35:35;94917.56;;;-2.60;100.00
23229;BME280;11783;50.350;6.576;2024-01-15T02:38:02;94925.09;;;-2.65;100.00
23229;BME280;11783;50.350;6.576;2024-01-15T02:40:28;94920.31;;;-2.61;100.00
23229;BME280;11783;50.350;6.576;2024-01-15T02:42:53;94930.50;;;-2.66;100.00
23229;BME280;11783;50.350;6.576;2024-01-15T02:45:19;94920.38;;;-2.55;100.00
23229;BME280;11783;50.350;6.576;2024-01-15T02:47:44;94930.19;;;-2.50;100.00
23229;BME280;11783;50.350;6.576;2024-01-15T02:50:10;94925.75;;;-2.56;100.00
23229;BME280;11783;50.350;6.576;2024-01-15T02:52:35;94921.97;;;-2.54;100.00
23229;BME280;11783;50.350;6.576;2024-01-15T02:55:01;94922.13;;;-2.62;100.00
23229;BME280;11783;50.350;6.576;2024-01-15T02:57:26;94928.09;;;-2.68;100.00
23229;BME280;11783;50.350;6.576;2024-01-15T02:59:52;94920.94;;;-2.59;100.00
23229;BME280;11783;50.350;6.576;2024-01-15T03:02:17;94921.38;;;-2.56;100.00
23229;BME280;11783;50.350;6.576;2024-01-15T03:04:43;94913.16;;;-2.59;100.00
23229;BME280;11783;50.350;6.576;2024-01-15T03:07:09;94916.69;;;-2.67;100.00
23229;BME280;11783;50.350;6.576;2024-01-15T03:09:34;94920.28;;;-2.68;100.00
23229;BME280;11783;50.350;6.576;2024-01-15T03:12:00;94916.50;;;-2.65;100.00
23229;BME280;11783;50.350;6.576;2024-01-15T03:14:25;94907.50;;;-2.63;100.00
23229;BME280;11783;50.350;6.576;2024-01-15T03:16:52;94916.91;;;-2.62;100.00
23229;BME280;11783;50.350;6.576;2024-01-15T03:19:17;94911.38;;;-2.52;100.00
23229;BME280;11783;50.350;6.576;2024-01-15T03:21:43;94916.38;;;-2.51;100.00
23229;BME280;11783;50.350;6.576;2024-01-15T03:24:08;94911.38;;;-2.52;100.00
23229;BME280;11783;50.350;6.576;2024-01-15T03:26:34;94909.16;;;-2.55;100.00
23229;BME280;11783;50.350;6.576;2024-01-15T03:28:59;94915.97;;;-2.48;100.00
23229;BME280;11783;50.350;6.576;2024-01-15T03:31:25;94902.16;;;-2.55;100.00
23229;BME280;11783;50.350;6.576;2024-01-15T03:33:50;94898.94;;;-2.57;100.00
23229;BME280;11783;50.350;6.576;2024-01-15T03:36:15;94906.38;;;-2.54;100.00
23229;BME280;11783;50.350;6.576;2024-01-15T03:38:41;94902.97;;;-2.48;100.00
23229;BME280;11783;50.350;6.576;2024-01-15T03:41:07;94900.97;;;-2.46;100.00
23229;BME280;11783;50.350;6.576;2024-01-15T03:43:33;94897.16;;;-2.50;100.00
23229;BME280;11783;50.350;6.576;2024-01-15T03:45:59;94894.97;;;-2.53;100.00
23229;BME280;11783;50.350;6.576;2024-01-15T03:48:24;94891.97;;;-2.43;100.00
23229;BME280;11783;50.350;6.576;2024-01-15T03:50:50;94890.38;;;-2.51;100.00
23229;BME280;11783;50.350;6.576;2024-01-15T03:53:15;94890.56;;;-2.46;100.00
23229;BME280;11783;50.350;6.576;2024-01-15T03:55:42;94892.56;;;-2.48;100.00
23229;BME280;11783;50.350;6.576;2024-01-15T03:58:07;94891.16;;;-2.44;100.00
23229;BME280;11783;50.350;6.576;2024-01-15T04:00:32;94881.00;;;-2.38;100.00
23229;BME280;11783;50.350;6.576;2024-01-15T04:02:58;94882.59;;;-2.37;100.00
23229;BME280;11783;50.350;6.576;2024-01-15T04:05:23;94880.41;;;-2.34;100.00
23229;BME280;11783;50.350;6.576;2024-01-15T04:07:49;94876.59;;;-2.38;100.00
23229;BME280;11783;50.350;6.576;2024-01-15T04:10:14;94875.41;;;-2.35;100.00
23229;BME280;11783;50.350;6.576;2024-01-15T04:12:40;94873.59;;;-2.41;100.00
23229;BME280;11783;50.350;6.576;2024-01-15T04:15:05;94868.19;;;-2.33;100.00
23229;BME280;11783;50.350;6.576;2024-01-15T04:17:31;94874.22;;;-2.33;100.00
23229;BME280;11783;50.350;6.576;2024-01-15T04:19:56;94873.00;;;-2.37;100.00
23229;BME280;11783;50.350;6.576;2024-01-15T04:22:22;94874.59;;;-2.29;100.00
23229;BME280;11783;50.350;6.576;2024-01-15T04:24:48;94870.81;;;-2.33;100.00
23229;BME280;11783;50.350;6.576;2024-01-15T04:27:13;94868.78;;;-2.38;100.00
23229;BME280;11783;50.350;6.576;2024-01-15T04:29:39;94873.00;;;-2.37;100.00
23229;BME280;11783;50.350;6.576;2024-01-15T04:32:05;94871.41;;;-2.31;100.00
23229;BME280;11783;50.350;6.576;2024-01-15T04:34:30;94863.00;;;-2.40;100.00
23229;BME280;11783;50.350;6.576;2024-01-15T04:36:56;94858.97;;;-2.42;100.00
23229;BME280;11783;50.350;6.576;2024-01-15T04:39:21;94855.00;;;-2.32;100.00
23229;BME280;11783;50.350;6.576;2024-01-15T04:41:47;94853.78;;;-2.36;100.00
23229;BME280;11783;50.350;6.576;2024-01-15T04:44:13;94861.00;;;-2.31;100.00
23229;BME280;11783;50.350;6.576;2024-01-15T04:46:38;94855.59;;;-2.36;100.00
23229;BME280;11783;50.350;6.576;2024-01-15T04:49:03;94849.59;;;-2.30;100.00
23229;BME280;11783;50.350;6.576;2024-01-15T04:51:29;94859.00;;;-2.36;100.00
23229;BME280;11783;50.350;6.576;2024-01-15T04:53:54;94853.38;;;-2.39;100.00
23229;BME280;11783;50.350;6.576;2024-01-15T04:56:20;94856.19;;;-2.34;100.00
23229;BME280;11783;50.350;6.576;2024-01-15T04:58:46;94861.00;;;-2.38;100.00
23229;BME280;11783;50.350;6.576;2024-01-15T05:01:11;94856.00;;;-2.33;100.00
23229;BME280;11783;50.350;6.576;2024-01-15T05:03:37;94849.38;;;-2.35;100.00
23229;BME280;11783;50.350;6.576;2024-01-15T05:06:03;94851.59;;;-2.26;100.00
23229;BME280;11783;50.350;6.576;2024-01-15T05:08:28;94852.19;;;-2.30;100.00
23229;BME280;11783;50.350;6.576;2024-01-15T05:10:53;94848.59;;;-2.29;100.00
23229;BME280;11783;50.350;6.576;2024-01-15T05:13:19;94840.97;;;-2.24;100.00
23229;BME280;11783;50.350;6.576;2024-01-15T05:15:45;94842.78;;;-2.31;100.00
23229;BME280;11783;50.350;6.576;2024-01-15T05:18:10;94839.38;;;-2.32;100.00
23229;BME280;11783;50.350;6.576;2024-01-15T05:20:36;94838.59;;;-2.26;100.00
23229;BME280;11783;50.350;6.576;2024-01-15T05:23:01;94827.16;;;-2.31;100.00
23229;BME280;11783;50.350;6.576;2024-01-15T05:25:26;94825.38;;;-2.31;100.00
23229;BME280;11783;50.350;6.576;2024-01-15T05:27:52;94829.16;;;-2.27;100.00
23229;BME280;11783;50.350;6.576;2024-01-15T05:30:17;94826.41;;;-2.19;100.00
23229;BME280;11783;50.350;6.576;2024-01-15T05:32:43;94815.38;;;-2.27;100.00
23229;BME280;11783;50.350;6.576;2024-01-15T05:35:08;94827.38;;;-2.26;100.00
23229;BME280;11783;50.350;6.576;2024-01-15T05:37:34;94814.78;;;-2.23;100.00
23229;BME280;11783;50.350;6.576;2024-01-15T05:39:59;94818.19;;;-2.22;100.00
23229;BME280;11783;50.350;6.576;2024-01-15T05:42:24;94819.56;;;-2.26;100.00
23229;BME280;11783;50.350;6.576;2024-01-15T05:44:50;94822.97;;;-2.26;100.00
23229;BME280;11783;50.350;6.576;2024-01-15T05:47:15;94807.34;;;-2.26;100.00
23229;BME280;11783;50.350;6.576;2024-01-15T05:49:41;94817.19;;;-2.21;100.00
23229;BME280;11783;50.350;6.576;2024-01-15T05:52:06;94815.38;;;-2.27;100.00
23229;BME280;11783;50.350;6.576;2024-01-15T05:54:32;94811.16;;;-2.28;100.00
23229;BME280;11783;50.350;6.576;2024-01-15T05:56:57;94819.75;;;-2.28;100.00
23229;BME280;11783;50.350;6.576;2024-01-15T05:59:23;94819.97;;;-2.29;100.00
23229;BME280;11783;50.350;6.576;2024-01-15T06:01:48;94813.16;;;-2.24;100.00
23229;BME280;11783;50.350;6.576;2024-01-15T06:04:13;94815.97;;;-2.32;100.00
23229;BME280;11783;50.350;6.576;2024-01-15T06:06:39;94810.97;;;-2.33;100.00
23229;BME280;11783;50.350;6.576;2024-01-15T06:09:04;94811.97;;;-2.34;100.00
23229;BME280;11783;50.350;6.576;2024-01-15T06:11:32;94815.56;;;-2.35;100.00
23229;BME280;11783;50.350;6.576;2024-01-15T06:13:58;94812.75;;;-2.34;100.00
23229;BME280;11783;50.350;6.576;2024-01-15T06:16:24;94819.38;;;-2.31;100.00
23229;BME280;11783;50.350;6.576;2024-01-15T06:18:50;94812.56;;;-2.26;100.00
23229;BME280;11783;50.350;6.576;2024-01-15T06:21:16;94814.97;;;-2.31;100.00
23229;BME280;11783;50.350;6.576;2024-01-15T06:23:41;94803.94;;;-2.39;100.00
23229;BME280;11783;50.350;6.576;2024-01-15T06:26:07;94814.75;;;-2.29;100.00
23229;BME280;11783;50.350;6.576;2024-01-15T06:28:32;94816.56;;;-2.30;100.00
23229;BME280;11783;50.350;6.576;2024-01-15T06:30:57;94815.38;;;-2.27;100.00
23229;BME280;11783;50.350;6.576;2024-01-15T06:33:23;94808.75;;;-2.23;100.00
23229;BME280;11783;50.350;6.576;2024-01-15T06:35:49;94811.75;;;-2.26;100.00
23229;BME280;11783;50.350;6.576;2024-01-15T06:38:15;94814.56;;;-2.28;100.00
23229;BME280;11783;50.350;6.576;2024-01-15T06:40:40;94808.56;;;-2.28;100.00
23229;BME280;11783;50.350;6.576;2024-01-15T06:43:17;94812.16;;;-2.29;100.00
23229;BME280;11783;50.350;6.576;2024-01-15T06:45:43;94810.75;;;-2.25;100.00
23229;BME280;11783;50.350;6.576;2024-01-15T06:48:08;94806.75;;;-2.34;100.00
23229;BME280;11783;50.350;6.576;2024-01-15T06:50:34;94801.34;;;-2.33;100.00
23229;BME280;11783;50.350;6.576;2024-01-15T06:52:59;94811.97;;;-2.28;100.00
23229;BME280;11783;50.350;6.576;2024-01-15T06:55:25;94804.16;;;-2.34;100.00
23229;BME280;11783;50.350;6.576;2024-01-15T06:57:51;94797.94;;;-2.33;100.00
23229;BME280;11783;50.350;6.576;2024-01-15T07:00:17;94817.75;;;-2.26;100.00
23229;BME280;11783;50.350;6.576;2024-01-15T07:02:44;94810.56;;;-2.30;100.00
23229;BME280;11783;50.350;6.576;2024-01-15T07:05:10;94798.16;;;-2.28;100.00
23229;BME280;11783;50.350;6.576;2024-01-15T07:07:36;94810.38;;;-2.22;100.00
23229;BME280;11783;50.350;6.576;2024-01-15T07:10:01;94813.59;;;-2.20;100.00
23229;BME280;11783;50.350;6.576;2024-01-15T07:12:29;94808.59;;;-2.22;100.00
23229;BME280;11783;50.350;6.576;2024-01-15T07:14:54;94803.34;;;-2.28;100.00
23229;BME280;11783;50.350;6.576;2024-01-15T07:17:20;94803.56;;;-2.23;100.00
23229;BME280;11783;50.350;6.576;2024-01-15T07:19:46;94805.34;;;-2.30;100.00
23229;BME280;11783;50.350;6.576;2024-01-15T07:22:12;94794.16;;;-2.18;100.00
23229;BME280;11783;50.350;6.576;2024-01-15T07:24:37;94795.38;;;-2.20;100.00
23229;BME280;11783;50.350;6.576;2024-01-15T07:27:03;94792.56;;;-2.19;100.00
23229;BME280;11783;50.350;6.576;2024-01-15T07:29:30;94784.97;;;-2.20;100.00
23229;BME280;11783;50.350;6.576;2024-01-15T07:31:55;94782.16;;;-2.19;100.00
23229;BME280;11783;50.350;6.576;2024-01-15T07:34:21;94782.75;;;-2.17;100.00
23229;BME280;11783;50.350;6.576;2024-01-15T07:36:47;94781.13;;;-2.24;100.00
23229;BME280;11783;50.350;6.576;2024-01-15T07:39:12;94779.34;;;-2.17;100.00
23229;BME280;11783;50.350;6.576;2024-01-15T07:41:39;94772.53;;;-2.18;100.00
23229;BME280;11783;50.350;6.576;2024-01-15T07:44:05;94770.94;;;-2.19;100.00
23229;BME280;11783;50.350;6.576;2024-01-15T07:46:30;94781.94;;;-2.10;100.00
23229;BME280;11783;50.350;6.576;2024-01-15T07:48:56;94785.34;;;-2.17;100.00
23229;BME280;11783;50.350;6.576;2024-01-15T07:51:23;94796.16;;;-2.20;100.00
23229;BME280;11783;50.350;6.576;2024-01-15T07:53:49;94797.78;;;-2.19;100.00
23229;BME280;11783;50.350;6.576;2024-01-15T07:56:14;94786.97;;;-2.16;100.00
23229;BME280;11783;50.350;6.576;2024-01-15T07:58:39;94790.97;;;-2.20;100.00
23229;BME280;11783;50.350;6.576;2024-01-15T08:01:05;94789.56;;;-2.22;100.00
23229;BME280;11783;50.350;6.576;2024-01-15T08:03:31;94792.16;;;-2.22;100.00
23229;BME280;11783;50.350;6.576;2024-01-15T08:05:56;94796.56;;;-2.16;100.00
23229;BME280;11783;50.350;6.576;2024-01-15T08:08:24;94802.97;;;-2.19;100.00
23229;BME280;11783;50.350;6.576;2024-01-15T08:10:52;94802.38;;;-2.14;100.00
23229;BME280;11783;50.350;6.576;2024-01-15T08:13:17;94812.38;;;-2.11;100.00
23229;BME280;11783;50.350;6.576;2024-01-15T08:15:43;94808.97;;;-2.11;100.00
23229;BME280;11783;50.350;6.576;2024-01-15T08:18:08;94816.19;;;-2.14;100.00
23229;BME280;11783;50.350;6.576;2024-01-15T08:20:34;94804.38;;;-2.16;100.00
23229;BME280;11783;50.350;6.576;2024-01-15T08:23:00;94816.59;;;-2.10;100.00
23229;BME280;11783;50.350;6.576;2024-01-15T08:25:25;94810.38;;;-2.09;100.00
23229;BME280;11783;50.350;6.576;2024-01-15T08:27:51;94803.16;;;-2.07;100.00
23229;BME280;11783;50.350;6.576;2024-01-15T08:30:17;94795.75;;;-2.10;100.00
23229;BME280;11783;50.350;6.576;2024-01-15T08:32:44;94793.34;;;-2.05;100.00
23229;BME280;11783;50.350;6.576;2024-01-15T08:35:10;94797.59;;;-2.04;100.00
23229;BME280;11783;50.350;6.576;2024-01-15T08:37:35;94794.97;;;-2.10;100.00
23229;BME280;11783;50.350;6.576;2024-01-15T08:40:01;94803.97;;;-2.06;100.00
23229;BME280;11783;50.350;6.576;2024-01-15T08:42:26;94804.78;;;-1.99;100.00
23229;BME280;11783;50.350;6.576;2024-01-15T08:44:51;94790.75;;;-2.05;100.00
23229;BME280;11783;50.350;6.576;2024-01-15T08:47:17;94800.19;;;-1.97;100.00
23229;BME280;11783;50.350;6.576;2024-01-15T08:49:42;94797.56;;;-1.91;100.00
23229;BME280;11783;50.350;6.576;2024-01-15T08:52:09;94800.41;;;-1.86;100.00
23229;BME280;11783;50.350;6.576;2024-01-15T08:54:34;94811.19;;;-1.89;100.00
23229;BME280;11783;50.350;6.576;2024-01-15T08:57:00;94802.38;;;-2.01;100.00
23229;BME280;11783;50.350;6.576;2024-01-15T08:59:25;94809.59;;;-2.03;100.00
23229;BME280;11783;50.350;6.576;2024-01-15T09:01:53;94808.19;;;-1.99;100.00
23229;BME280;11783;50.350;6.576;2024-01-15T09:04:19;94819.81;;;-2.01;100.00
23229;BME280;11783;50.350;6.576;2024-01-15T09:06:45;94811.41;;;-1.97;100.00
23229;BME280;11783;50.350;6.576;2024-01-15T09:09:12;94830.41;;;-1.90;100.00
23229;BME280;11783;50.350;6.576;2024-01-15T09:11:38;94818.19;;;-1.89;100.00
23229;BME280;11783;50.350;6.576;2024-01-15T09:14:03;94818.63;;;-1.86;100.00
23229;BME280;11783;50.350;6.576;2024-01-15T09:16:28;94833.63;;;-1.88;100.00
23229;BME280;11783;50.350;6.576;2024-01-15T09:18:54;94830.22;;;-1.95;100.00
23229;BME280;11783;50.350;6.576;2024-01-15T09:21:22;94826.81;;;-1.89;100.00
23229;BME280;11783;50.350;6.576;2024-01-15T09:23:47;94822.41;;;-1.95;100.00
23229;BME280;11783;50.350;6.576;2024-01-15T09:26:13;94826.81;;;-1.89;100.00
23229;BME280;11783;50.350;6.576;2024-01-15T09:28:38;94828.22;;;-1.86;100.00
23229;BME280;11783;50.350;6.576;2024-01-15T09:31:04;94821.41;;;-1.87;100.00
23229;BME280;11783;50.350;6.576;2024-01-15T09:33:29;94820.81;;;-1.83;100.00
23229;BME280;11783;50.350;6.576;2024-01-15T09:35:54;94822.41;;;-1.75;100.00
23229;BME280;11783;50.350;6.576;2024-01-15T09:38:20;94814.19;;;-1.72;100.00
23229;BME280;11783;50.350;6.576;2024-01-15T09:40:46;94806.78;;;-1.75;100.00
23229;BME280;11783;50.350;6.576;2024-01-15T09:43:12;94803.38;;;-1.69;100.00
23229;BME280;11783;50.350;6.576;2024-01-15T09:45:39;94805.19;;;-1.76;100.00
23229;BME280;11783;50.350;6.576;2024-01-15T09:48:05;94801.56;;;-1.68;100.00
23229;BME280;11783;50.350;6.576;2024-01-15T09:50:31;94806.56;;;-1.60;100.00
23229;BME280;11783;50.350;6.576;2024-01-15T09:52:57;94804.78;;;-1.60;100.00
23229;BME280;11783;50.350;6.576;2024-01-15T09:55:23;94800.53;;;-1.54;100.00
23229;BME280;11783;50.350;6.576;2024-01-15T09:57:49;94801.34;;;-1.47;100.00
23229;BME280;11783;50.350;6.576;2024-01-15T10:00:17;94788.31;;;-1.54;100.00
23229;BME280;11783;50.350;6.576;2024-01-15T10:02:43;94793.91;;;-1.50;100.00
23229;BME280;11783;50.350;6.576;2024-01-15T10:05:09;94782.09;;;-1.53;100.00
23229;BME280;11783;50.350;6.576;2024-01-15T10:07:36;94783.69;;;-1.52;100.00
23229;BME280;11783;50.350;6.576;2024-01-15T10:10:02;94780.28;;;-1.52;100.00
23229;BME280;11783;50.350;6.576;2024-01-15T10:12:28;94788.72;;;-1.50;100.00
23229;BME280;11783;50.350;6.576;2024-01-15T10:14:56;94786.31;;;-1.45;100.00
23229;BME280;11783;50.350;6.576;2024-01-15T10:17:21;94789.09;;;-1.40;100.00
23229;BME280;11783;50.350;6.576;2024-01-15T10:19:47;94798.53;;;-1.39;100.00
23229;BME280;11783;50.350;6.576;2024-01-15T10:22:14;94787.69;;;-1.36;100.00
23229;BME280;11783;50.350;6.576;2024-01-15T10:24:40;94783.28;;;-1.29;100.00
23229;BME280;11783;50.350;6.576;2024-01-15T10:27:09;94787.28;;;-1.26;100.00
23229;BME280;11783;50.350;6.576;2024-01-15T10:29:35;94795.09;;;-1.26;100.00
23229;BME280;11783;50.350;6.576;2024-01-15T10:32:01;94794.88;;;-1.31;100.00
23229;BME280;11783;50.350;6.576;2024-01-15T10:34:27;94802.91;;;-1.33;100.00
23229;BME280;11783;50.350;6.576;2024-01-15T10:36:53;94802.47;;;-1.16;100.00
23229;BME280;11783;50.350;6.576;2024-01-15T10:39:23;94791.44;;;-1.18;100.00
23229;BME280;11783;50.350;6.576;2024-01-15T10:41:49;94796.03;;;-1.07;100.00
23229;BME280;11783;50.350;6.576;2024-01-15T10:44:16;94795.25;;;-1.08;100.00
23229;BME280;11783;50.350;6.576;2024-01-15T10:46:43;94792.00;;;-1.03;100.00
23229;BME280;11783;50.350;6.576;2024-01-15T10:49:09;94798.78;;;-0.96;100.00
23229;BME280;11783;50.350;6.576;2024-01-15T10:51:36;94801.22;;;-1.01;100.00
23229;BME280;11783;50.350;6.576;2024-01-15T10:54:01;94798.44;;;-1.12;100.00
23229;BME280;11783;50.350;6.576;2024-01-15T10:56:29;94797.03;;;-1.15;100.00
23229;BME280;11783;50.350;6.576;2024-01-15T10:58:56;94790.69;;;-1.26;100.00
23229;BME280;11783;50.350;6.576;2024-01-15T11:01:23;94789.06;;;-1.20;100.00
23229;BME280;11783;50.350;6.576;2024-01-15T11:03:49;94784.03;;;-1.22;100.00
23229;BME280;11783;50.350;6.576;2024-01-15T11:06:18;94788.44;;;-1.09;100.00
23229;BME280;11783;50.350;6.576;2024-01-15T11:08:51;94797.59;;;-1.00;100.00
23229;BME280;11783;50.350;6.576;2024-01-15T11:11:17;94792.19;;;-0.98;100.00
23229;BME280;11783;50.350;6.576;2024-01-15T11:13:45;94793.16;;;-0.86;100.00
23229;BME280;11783;50.350;6.576;2024-01-15T11:16:13;94796.81;;;-1.00;100.00
23229;BME280;11783;50.350;6.576;2024-01-15T11:18:43;94795.38;;;-0.96;100.00
23229;BME280;11783;50.350;6.576;2024-01-15T11:23:47;94792.81;;;-1.03;100.00
23229;BME280;11783;50.350;6.576;2024-01-15T11:28:57;94795.97;;;-0.94;100.00
23229;BME280;11783;50.350;6.576;2024-01-15T11:31:56;94797.38;;;-0.92;100.00
23229;BME280;11783;50.350;6.576;2024-01-15T11:34:15;94792.19;;;-0.98;100.00
23229;BME280;11783;50.350;6.576;2024-01-15T11:42:01;94795.16;;;-0.95;100.00
23229;BME280;11783;50.350;6.576;2024-01-15T11:44:27;94791.22;;;-1.04;100.00
23229;BME280;11783;50.350;6.576;2024-01-15T11:47:09;94793.19;;;-0.93;100.00
23229;BME280;11783;50.350;6.576;2024-01-15T11:52:21;94792.25;;;-1.11;100.00
23229;BME280;11783;50.350;6.576;2024-01-15T11:55:11;94803.63;;;-0.99;100.00
23229;BME280;11783;50.350;6.576;2024-01-15T11:57:41;94812.66;;;-1.02;100.00
23229;BME280;11783;50.350;6.576;2024-01-15T12:00:08;94800.22;;;-1.00;100.00
23229;BME280;11783;50.350;6.576;2024-01-15T12:02:34;94804.03;;;-1.02;100.00
23229;BME280;11783;50.350;6.576;2024-01-15T12:04:59;94814.84;;;-0.99;100.00
23229;BME280;11783;50.350;6.576;2024-01-15T12:07:25;94812.69;;;-1.08;100.00
23229;BME280;11783;50.350;6.576;2024-01-15T12:09:50;94816.09;;;-1.08;100.00
23229;BME280;11783;50.350;6.576;2024-01-15T12:15:24;94815.50;;;-1.10;100.00
23229;BME280;11783;50.350;6.576;2024-01-15T12:17:49;94809.47;;;-1.04;100.00
23229;BME280;11783;50.350;6.576;2024-01-15T12:20:15;94813.09;;;-1.11;100.00
23229;BME280;11783;50.350;6.576;2024-01-15T12:22:41;94805.88;;;-1.16;100.00
23229;BME280;11783;50.350;6.576;2024-01-15T12:25:07;94812.06;;;-1.04;100.00
23229;BME280;11783;50.350;6.576;2024-01-15T12:27:33;94812.03;;;-0.97;100.00
23229;BME280;11783;50.350;6.576;2024-01-15T12:29:58;94815.03;;;-0.94;100.00
23229;BME280;11783;50.350;6.576;2024-01-15T12:32:24;94812.41;;;-0.87;100.00
23229;BME280;11783;50.350;6.576;2024-01-15T12:34:50;94815.66;;;-0.98;100.00
23229;BME280;11783;50.350;6.576;2024-01-15T12:37:18;94812.41;;;-0.87;100.00
23229;BME280;11783;50.350;6.576;2024-01-15T12:39:44;94818.63;;;-0.88;100.00
23229;BME280;11783;50.350;6.576;2024-01-15T12:42:10;94823.66;;;-0.86;100.00
23229;BME280;11783;50.350;6.576;2024-01-15T12:44:36;94831.00;;;-0.77;100.00
23229;BME280;11783;50.350;6.576;2024-01-15T12:47:04;94822.81;;;-0.80;100.00
23229;BME280;11783;50.350;6.576;2024-01-15T12:49:29;94833.25;;;-0.80;100.00
23229;BME280;11783;50.350;6.576;2024-01-15T12:51:57;94827.72;;;-1.04;100.00
23229;BME280;11783;50.350;6.576;2024-01-15T12:54:23;94844.56;;;-1.13;100.00
23229;BME280;11783;50.350;6.576;2024-01-15T12:56:49;94845.72;;;-0.96;100.00
23229;BME280;11783;50.350;6.576;2024-01-15T12:59:14;94837.44;;;-0.79;100.00
23229;BME280;11783;50.350;6.576;2024-01-15T13:01:40;94845.44;;;-0.68;100.00